createdAt,value
2023-05-10T00:00:57.707Z,1.80
2023-05-10T00:03:25.080Z,1.70
2023-05-10T00:05:52.267Z,1.85
2023-05-10T00:08:22.636Z,1.80
2023-05-10T00:10:50.242Z,1.90
2023-05-10T00:13:17.483Z,1.80
2023-05-10T00:15:44.690Z,1.70
2023-05-10T00:18:11.926Z,1.80
2023-05-10T00:20:39.050Z,1.60
2023-05-10T00:23:06.693Z,1.77
2023-05-10T00:25:33.879Z,1.70
2023-05-10T00:28:02.921Z,1.63
2023-05-10T00:30:30.129Z,1.70
2023-05-10T00:32:57.448Z,1.90
2023-05-10T00:35:24.828Z,1.70
2023-05-10T00:37:52.045Z,1.67
2023-05-10T00:40:19.410Z,1.70
2023-05-10T00:42:51.197Z,1.73
2023-05-10T00:45:18.409Z,1.70
2023-05-10T00:47:45.711Z,1.90
2023-05-10T00:50:13.286Z,1.60
2023-05-10T00:52:40.600Z,1.90
2023-05-10T00:55:08.447Z,1.60
2023-05-10T00:57:35.780Z,1.60
2023-05-10T01:00:04.935Z,1.58
2023-05-10T01:02:32.136Z,1.80
2023-05-10T01:04:59.990Z,1.70
2023-05-10T01:07:27.271Z,1.60
2023-05-10T01:09:54.511Z,1.55
2023-05-10T01:12:22.289Z,1.83
2023-05-10T01:14:49.963Z,1.50
2023-05-10T01:17:17.729Z,1.50
2023-05-10T01:19:45.073Z,1.50
2023-05-10T01:22:14.990Z,1.40
2023-05-10T01:25:03.655Z,1.33
2023-05-10T01:27:54.247Z,1.38
2023-05-10T01:30:58.844Z,1.40
2023-05-10T01:33:41.011Z,1.40
2023-05-10T01:36:30.442Z,1.33
2023-05-10T01:39:10.899Z,1.45
2023-05-10T01:41:42.440Z,1.20
2023-05-10T01:44:37.053Z,1.27
2023-05-10T01:47:21.748Z,1.17
2023-05-10T01:49:56.284Z,1.17
2023-05-10T01:52:39.138Z,1.20
2023-05-10T01:55:09.566Z,1.13
2023-05-10T01:57:43.345Z,1.10
2023-05-10T02:00:13.099Z,1.23
2023-05-10T02:05:15.198Z,1.27
2023-05-10T02:07:42.907Z,1.05
2023-05-10T02:10:12.922Z,1.30
2023-05-10T02:12:46.893Z,1.00
2023-05-10T02:15:20.539Z,1.08
2023-05-10T02:17:48.668Z,0.80
2023-05-10T02:20:20.174Z,1.05
2023-05-10T02:22:50.780Z,1.10
2023-05-10T02:25:20.789Z,1.10
2023-05-10T02:27:49.721Z,0.82
2023-05-10T02:30:19.410Z,1.20
2023-05-10T02:32:48.264Z,1.05
2023-05-10T02:35:16.599Z,1.02
2023-05-10T02:37:47.075Z,0.88
2023-05-10T02:40:17.129Z,1.10
2023-05-10T02:42:48.888Z,1.00
2023-05-10T02:45:29.498Z,1.10
2023-05-10T02:47:58.129Z,0.90
2023-05-10T02:50:28.837Z,1.10
2023-05-10T02:53:02.112Z,1.10
2023-05-10T02:55:34.627Z,1.05
2023-05-10T02:58:03.229Z,0.90
2023-05-10T03:00:30.749Z,1.13
2023-05-10T03:02:58.422Z,0.95
2023-05-10T03:05:27.107Z,1.00
2023-05-10T03:07:56.342Z,1.02
2023-05-10T03:10:31.088Z,1.05
2023-05-10T03:13:16.022Z,1.20
2023-05-10T03:16:05.257Z,1.08
2023-05-10T03:18:45.190Z,1.20
2023-05-10T03:21:14.899Z,1.00
2023-05-10T03:23:49.441Z,1.00
2023-05-10T03:26:21.914Z,0.98
2023-05-10T03:28:51.261Z,1.20
2023-05-10T03:31:19.045Z,1.20
2023-05-10T03:33:53.559Z,1.10
2023-05-10T03:36:25.369Z,1.20
2023-05-10T03:38:52.947Z,1.20
2023-05-10T03:41:20.132Z,1.10
2023-05-10T03:43:48.314Z,1.00
2023-05-10T03:46:15.507Z,1.13
2023-05-10T03:48:42.920Z,1.35
2023-05-10T03:51:10.165Z,1.33
2023-05-10T03:53:37.269Z,1.25
2023-05-10T03:56:04.998Z,1.25
2023-05-10T03:58:32.213Z,1.15
2023-05-10T04:00:59.455Z,1.02
2023-05-10T04:03:27.774Z,1.55
2023-05-10T04:06:04.332Z,1.27
2023-05-10T04:08:32.637Z,1.25
2023-05-10T04:11:10.507Z,1.42
2023-05-10T04:13:38.981Z,1.20
2023-05-10T04:16:06.705Z,1.40
2023-05-10T04:18:34.062Z,1.50
2023-05-10T04:21:01.242Z,1.27
2023-05-10T04:23:29.090Z,1.85
2023-05-10T04:26:03.120Z,1.33
2023-05-10T04:28:33.415Z,1.10
2023-05-10T04:31:08.545Z,1.35
2023-05-10T04:33:38.799Z,1.33
2023-05-10T04:36:06.562Z,1.50
2023-05-10T04:38:33.754Z,1.40
2023-05-10T04:41:11.482Z,1.30
2023-05-10T04:43:39.500Z,1.25
2023-05-10T04:46:08.613Z,1.30
2023-05-10T04:48:35.933Z,1.20
2023-05-10T04:51:05.073Z,1.40
2023-05-10T04:53:32.822Z,2.13
2023-05-10T04:56:00.032Z,1.48
2023-05-10T04:58:27.500Z,2.78
2023-05-10T05:00:56.436Z,2.08
2023-05-10T05:03:23.806Z,1.65
2023-05-10T05:05:50.910Z,1.45
2023-05-10T05:08:18.068Z,0.90
2023-05-10T05:10:45.323Z,1.52
2023-05-10T05:13:14.180Z,1.98
2023-05-10T05:15:41.384Z,1.73
2023-05-10T05:18:08.745Z,2.75
2023-05-10T05:20:36.091Z,1.00
2023-05-10T05:23:03.487Z,0.85
2023-05-10T05:25:31.422Z,1.52
2023-05-10T05:27:58.573Z,2.35
2023-05-10T05:30:25.626Z,1.20
2023-05-10T05:32:52.910Z,1.00
2023-05-10T05:35:20.178Z,1.13
2023-05-10T05:37:49.811Z,1.08
2023-05-10T05:40:16.928Z,1.77
2023-05-10T05:42:44.102Z,2.63
2023-05-10T05:45:14.575Z,0.80
2023-05-10T05:47:42.217Z,3.58
2023-05-10T05:50:09.904Z,4.20
2023-05-10T05:52:37.484Z,2.63
2023-05-10T05:55:05.021Z,0.90
2023-05-10T05:57:32.195Z,1.10
2023-05-10T05:59:59.352Z,1.90
2023-05-10T06:02:26.569Z,1.27
2023-05-10T06:04:53.951Z,1.13
2023-05-10T06:07:21.623Z,1.45
2023-05-10T06:09:48.844Z,1.30
2023-05-10T06:12:17.109Z,1.27
2023-05-10T06:14:44.391Z,1.30
2023-05-10T06:17:11.581Z,1.45
2023-05-10T06:19:38.732Z,1.23
2023-05-10T06:22:05.851Z,1.13
2023-05-10T06:24:32.967Z,1.17
2023-05-10T06:27:01.507Z,1.38
2023-05-10T06:29:28.764Z,1.88
2023-05-10T06:31:56.047Z,2.08
2023-05-10T06:34:24.574Z,1.52
2023-05-10T06:36:55.132Z,1.75
2023-05-10T06:39:22.444Z,1.80
2023-05-10T06:41:49.626Z,1.50
2023-05-10T06:44:16.885Z,1.35
2023-05-10T06:46:44.310Z,1.67
2023-05-10T06:49:11.787Z,1.73
2023-05-10T06:51:38.942Z,1.65
2023-05-10T06:54:06.067Z,1.70
2023-05-10T06:56:33.178Z,1.60
2023-05-10T06:59:00.480Z,1.95
2023-05-10T07:01:27.755Z,1.60
2023-05-10T07:03:55.012Z,1.35
2023-05-10T07:06:33.101Z,1.70
2023-05-10T07:09:01.947Z,1.30
2023-05-10T07:11:29.165Z,1.77
2023-05-10T07:13:56.370Z,1.40
2023-05-10T07:16:27.170Z,1.70
2023-05-10T07:18:54.987Z,1.50
2023-05-10T07:21:22.374Z,1.40
2023-05-10T07:23:49.798Z,1.63
2023-05-10T07:26:22.163Z,1.35
2023-05-10T07:28:49.468Z,1.50
2023-05-10T07:31:16.836Z,1.67
2023-05-10T07:33:43.918Z,1.27
2023-05-10T07:36:11.259Z,1.80
2023-05-10T07:38:40.832Z,1.40
2023-05-10T07:41:08.184Z,1.27
2023-05-10T07:43:35.289Z,1.40
2023-05-10T07:46:02.430Z,1.48
2023-05-10T07:48:29.656Z,2.30
2023-05-10T07:50:59.794Z,2.10
2023-05-10T07:53:28.459Z,1.25
2023-05-10T07:55:59.545Z,1.30
2023-05-10T07:58:26.803Z,2.70
2023-05-10T08:00:53.952Z,1.40
2023-05-10T08:03:21.365Z,1.40
2023-05-10T08:05:48.685Z,1.40
2023-05-10T08:08:15.888Z,1.65
2023-05-10T08:10:42.996Z,1.27
2023-05-10T08:13:10.192Z,1.23
2023-05-10T08:15:37.429Z,1.33
2023-05-10T08:18:07.748Z,1.10
2023-05-10T08:20:34.978Z,1.00
2023-05-10T08:23:02.140Z,0.80
2023-05-10T08:25:29.290Z,1.10
2023-05-10T08:27:56.383Z,1.00
2023-05-10T08:30:23.916Z,1.40
2023-05-10T08:32:51.062Z,1.00
2023-05-10T08:35:21.635Z,1.10
2023-05-10T08:37:48.946Z,1.02
2023-05-10T08:40:16.981Z,1.30
2023-05-10T08:42:55.177Z,1.40
2023-05-10T08:45:24.648Z,1.50
2023-05-10T08:47:53.443Z,1.50
2023-05-10T08:50:21.704Z,1.40
2023-05-10T08:52:49.955Z,1.50
2023-05-10T08:55:18.002Z,1.35
2023-05-10T08:57:45.838Z,1.55
2023-05-10T09:00:14.939Z,1.40
2023-05-10T09:02:44.232Z,1.23
2023-05-10T09:05:11.918Z,1.15
2023-05-10T09:07:39.204Z,1.60
2023-05-10T09:10:07.206Z,1.20
2023-05-10T09:12:34.968Z,2.97
2023-05-10T09:15:03.697Z,1.02
2023-05-10T09:17:31.584Z,1.50
2023-05-10T09:20:04.205Z,1.15
2023-05-10T09:22:32.205Z,1.27
2023-05-10T09:25:14.013Z,1.10
2023-05-10T09:27:46.661Z,1.25
2023-05-10T09:30:27.758Z,0.90
2023-05-10T09:32:56.128Z,0.85
2023-05-10T09:35:28.733Z,1.60
2023-05-10T09:38:06.822Z,1.48
2023-05-10T09:40:34.087Z,1.30
2023-05-10T09:43:08.190Z,1.08
2023-05-10T09:45:38.516Z,1.30
2023-05-10T09:48:07.493Z,1.20
2023-05-10T09:50:35.554Z,1.05
2023-05-10T09:53:05.012Z,1.40
2023-05-10T09:55:46.036Z,1.10
2023-05-10T09:58:16.349Z,1.20
2023-05-10T10:00:49.118Z,1.10
2023-05-10T10:03:18.256Z,1.25
2023-05-10T10:05:47.979Z,1.20
2023-05-10T10:08:16.534Z,1.10
2023-05-10T10:10:50.523Z,1.30
2023-05-10T10:13:18.677Z,1.13
2023-05-10T10:15:47.319Z,1.25
2023-05-10T10:18:17.090Z,1.15
2023-05-10T10:20:44.407Z,1.35
2023-05-10T10:23:16.544Z,1.10
2023-05-10T10:25:46.448Z,1.20
2023-05-10T10:28:50.700Z,1.38
2023-05-10T10:31:29.950Z,1.30
2023-05-10T10:34:01.061Z,1.30
2023-05-10T10:36:31.760Z,1.30
2023-05-10T10:39:02.785Z,1.33
2023-05-10T10:41:57.232Z,1.20
2023-05-10T10:44:25.548Z,1.30
2023-05-10T10:47:25.479Z,1.30
2023-05-10T10:49:53.688Z,1.52
2023-05-10T10:52:38.721Z,1.40
2023-05-10T10:55:15.577Z,1.88
2023-05-10T10:57:42.831Z,1.67
2023-05-10T11:00:29.741Z,2.05
2023-05-10T11:03:09.954Z,1.70
2023-05-10T11:05:38.827Z,1.60
2023-05-10T11:08:14.795Z,1.60
2023-05-10T11:10:53.477Z,1.70
2023-05-10T11:13:43.943Z,1.38
2023-05-10T11:16:25.726Z,1.70
2023-05-10T11:19:10.900Z,1.42
2023-05-10T11:22:14.894Z,1.65
2023-05-10T11:24:58.332Z,2.03
2023-05-10T11:27:26.083Z,1.90
2023-05-10T11:29:53.528Z,1.80
2023-05-10T11:32:21.204Z,1.70
2023-05-10T11:34:49.654Z,1.60
2023-05-10T11:37:16.842Z,1.67
2023-05-10T11:39:50.790Z,1.60
2023-05-10T11:42:18.428Z,1.52
2023-05-10T11:44:48.299Z,1.40
2023-05-10T11:47:15.455Z,1.52
2023-05-10T11:49:45.621Z,1.50
2023-05-10T11:52:12.794Z,1.98
2023-05-10T11:54:52.671Z,1.30
2023-05-10T11:57:21.976Z,1.20
2023-05-10T11:59:54.254Z,1.05
2023-05-10T12:02:21.604Z,1.58
2023-05-10T12:04:48.936Z,1.45
2023-05-10T12:07:16.215Z,1.50
2023-05-10T12:10:03.766Z,1.40
2023-05-10T12:12:43.637Z,1.40
2023-05-10T12:15:29.351Z,1.63
2023-05-10T12:17:58.304Z,1.63
2023-05-10T12:20:28.744Z,1.60
2023-05-10T12:23:00.711Z,1.50
2023-05-10T12:25:32.373Z,1.60
2023-05-10T12:28:04.587Z,1.40
2023-05-10T12:30:34.260Z,1.25
2023-05-10T12:33:04.873Z,1.40
2023-05-10T12:35:32.777Z,1.40
2023-05-10T12:38:00.237Z,1.10
2023-05-10T12:40:27.398Z,1.00
2023-05-10T12:42:54.623Z,2.55
2023-05-10T12:45:21.993Z,0.70
2023-05-10T12:47:49.128Z,1.15
2023-05-10T12:50:16.646Z,0.90
2023-05-10T12:52:43.922Z,1.00
2023-05-10T12:55:11.261Z,1.20
2023-05-10T12:57:38.379Z,1.05
2023-05-10T13:00:06.761Z,0.90
2023-05-10T13:02:33.891Z,1.08
2023-05-10T13:05:01.389Z,1.10
2023-05-10T13:07:28.682Z,1.15
2023-05-10T13:09:55.786Z,1.17
2023-05-10T13:12:23.113Z,2.03
2023-05-10T13:14:50.265Z,1.02
2023-05-10T13:17:17.415Z,1.10
2023-05-10T13:19:44.597Z,1.30
2023-05-10T13:22:11.760Z,1.40
2023-05-10T13:24:38.937Z,1.15
2023-05-10T13:27:06.360Z,1.02
2023-05-10T13:29:33.573Z,1.38
2023-05-10T13:32:01.027Z,1.20
2023-05-10T13:34:28.383Z,1.00
2023-05-10T13:36:57.111Z,1.00
2023-05-10T13:39:24.339Z,0.75
2023-05-10T13:41:53.291Z,1.00
2023-05-10T13:44:21.959Z,0.75
2023-05-10T13:46:49.225Z,1.00
2023-05-10T13:49:16.564Z,0.90
2023-05-10T13:51:45.040Z,0.98
2023-05-10T13:54:13.534Z,1.10
2023-05-10T13:56:45.241Z,1.20
2023-05-10T13:59:12.377Z,1.10
2023-05-10T14:01:39.549Z,1.23
2023-05-10T14:04:06.833Z,1.20
2023-05-10T14:06:36.753Z,1.27
2023-05-10T14:09:04.838Z,1.40
2023-05-10T14:11:31.884Z,1.35
2023-05-10T14:13:58.986Z,1.20
2023-05-10T14:16:26.464Z,1.67
2023-05-10T14:18:53.654Z,1.35
2023-05-10T14:21:20.928Z,1.45
2023-05-10T14:23:48.119Z,1.45
2023-05-10T14:26:15.427Z,1.40
2023-05-10T14:28:42.592Z,1.60
2023-05-10T14:31:09.796Z,1.73
2023-05-10T14:33:36.905Z,1.70
2023-05-10T14:36:05.313Z,1.60
2023-05-10T14:38:32.536Z,2.08
2023-05-10T14:40:59.697Z,2.00
2023-05-10T14:43:29.042Z,2.83
2023-05-10T14:45:56.293Z,2.10
2023-05-10T14:48:23.483Z,2.28
2023-05-10T14:50:51.555Z,2.13
2023-05-10T14:53:19.311Z,1.90
2023-05-10T14:55:46.540Z,2.40
2023-05-10T14:58:13.687Z,1.50
2023-05-10T15:00:42.395Z,1.70
2023-05-10T15:03:10.395Z,1.52
2023-05-10T15:05:39.014Z,1.40
2023-05-10T15:08:07.165Z,1.50
2023-05-10T15:10:34.626Z,1.25
2023-05-10T15:13:02.425Z,1.40
2023-05-10T15:15:29.467Z,1.70
2023-05-10T15:17:56.739Z,1.45
2023-05-10T15:20:24.104Z,1.10
2023-05-10T15:22:51.526Z,1.30
2023-05-10T15:25:18.884Z,1.55
2023-05-10T15:27:46.429Z,1.30
2023-05-10T15:30:14.509Z,1.33
2023-05-10T15:32:41.955Z,1.40
2023-05-10T15:35:10.987Z,1.33
2023-05-10T15:37:38.823Z,1.63
2023-05-10T15:40:06.898Z,1.70
2023-05-10T15:42:34.958Z,1.45
2023-05-10T15:45:02.198Z,1.40
2023-05-10T15:47:31.567Z,1.30
2023-05-10T15:49:58.805Z,1.90
2023-05-10T15:52:26.020Z,1.58
2023-05-10T15:54:53.223Z,1.40
2023-05-10T15:57:20.337Z,1.40
2023-05-10T15:59:47.686Z,1.33
2023-05-10T16:02:14.959Z,1.38
2023-05-10T16:04:42.252Z,1.45
2023-05-10T16:07:09.337Z,1.30
2023-05-10T16:09:36.484Z,1.30
2023-05-10T16:12:03.689Z,1.63
2023-05-10T16:14:31.026Z,1.10
2023-05-10T16:16:58.264Z,1.00
2023-05-10T16:19:26.311Z,1.10
2023-05-10T16:21:55.431Z,1.00
2023-05-10T16:24:22.694Z,1.05
2023-05-10T16:26:49.896Z,1.20
2023-05-10T16:29:17.722Z,1.20
2023-05-10T16:31:44.965Z,1.20
2023-05-10T16:34:12.108Z,0.95
2023-05-10T16:36:39.354Z,1.20
2023-05-10T16:39:06.668Z,1.20
2023-05-10T16:41:35.020Z,1.25
2023-05-10T16:44:02.783Z,1.30
2023-05-10T16:46:30.200Z,1.30
2023-05-10T16:48:58.021Z,1.50
2023-05-10T16:51:25.366Z,1.33
2023-05-10T16:53:52.675Z,1.63
2023-05-10T16:56:22.152Z,2.20
2023-05-10T16:58:52.428Z,1.70
2023-05-10T17:01:19.826Z,1.52
2023-05-10T17:03:47.312Z,1.60
2023-05-10T17:06:14.588Z,1.83
2023-05-10T17:08:41.763Z,1.25
2023-05-10T17:11:08.979Z,1.40
2023-05-10T17:13:36.143Z,1.27
2023-05-10T17:16:06.318Z,1.27
2023-05-10T17:18:33.565Z,1.20
2023-05-10T17:21:00.719Z,1.20
2023-05-10T17:23:28.281Z,1.52
2023-05-10T17:25:55.344Z,1.30
2023-05-10T17:28:22.657Z,1.27
2023-05-10T17:30:57.162Z,1.10
2023-05-10T17:33:24.542Z,1.40
2023-05-10T17:35:52.154Z,1.23
2023-05-10T17:38:19.271Z,1.50
2023-05-10T17:40:46.362Z,1.40
2023-05-10T17:43:13.584Z,1.60
2023-05-10T17:45:40.683Z,1.30
2023-05-10T17:48:08.183Z,1.45
2023-05-10T17:50:35.752Z,1.30
2023-05-10T17:53:03.255Z,1.23
2023-05-10T17:55:31.228Z,1.20
2023-05-10T17:57:59.972Z,1.10
2023-05-10T18:00:27.146Z,1.13
2023-05-10T18:02:54.264Z,1.50
2023-05-10T18:05:21.970Z,1.60
2023-05-10T18:07:49.536Z,1.40
2023-05-10T18:10:16.745Z,1.33
2023-05-10T18:12:43.971Z,1.52
2023-05-10T18:15:11.386Z,1.42
2023-05-10T18:17:38.632Z,1.70
2023-05-10T18:20:06.627Z,1.40
2023-05-10T18:22:34.174Z,1.55
2023-05-10T18:25:01.586Z,1.60
2023-05-10T18:27:29.044Z,1.92
2023-05-10T18:29:56.249Z,1.92
2023-05-10T18:32:23.910Z,2.00
2023-05-10T18:34:51.005Z,2.08
2023-05-10T18:37:18.564Z,1.83
2023-05-10T18:39:45.745Z,1.80
2023-05-10T18:42:13.059Z,1.80
2023-05-10T18:44:40.308Z,1.90
2023-05-10T18:47:07.457Z,2.00
2023-05-10T18:49:34.568Z,2.10
2023-05-10T18:52:01.818Z,2.00
2023-05-10T18:54:29.396Z,1.90
2023-05-10T18:56:58.020Z,1.90
2023-05-10T18:59:28.367Z,1.85
2023-05-10T19:01:57.112Z,1.70
2023-05-10T19:04:24.813Z,1.88
2023-05-10T19:06:51.950Z,1.80
2023-05-10T19:09:20.754Z,1.70
2023-05-10T19:11:47.912Z,1.85
2023-05-10T19:14:15.110Z,1.70
2023-05-10T19:16:43.251Z,1.63
2023-05-10T19:19:10.804Z,2.03
2023-05-10T19:21:39.870Z,1.70
2023-05-10T19:24:07.226Z,1.80
2023-05-10T19:26:34.349Z,1.60
2023-05-10T19:29:01.485Z,2.00
2023-05-10T19:31:28.600Z,1.80
2023-05-10T19:33:57.542Z,2.00
2023-05-10T19:36:26.134Z,2.10
2023-05-10T19:38:53.965Z,1.77
2023-05-10T19:41:21.366Z,2.10
2023-05-10T19:43:48.507Z,1.90
2023-05-10T19:46:17.113Z,2.00
2023-05-10T19:48:50.086Z,2.30
2023-05-10T19:51:17.310Z,2.10
2023-05-10T19:53:45.188Z,48.60
2023-05-10T19:56:13.371Z,49.97
2023-05-10T19:58:40.986Z,37.50
2023-05-10T20:01:08.610Z,19.67
2023-05-10T20:03:36.564Z,9.40
2023-05-10T20:06:04.457Z,2.53
2023-05-10T20:08:31.807Z,4.63
2023-05-10T20:11:00.988Z,2.35
2023-05-10T20:13:28.209Z,2.58
2023-05-10T20:15:59.964Z,3.08
2023-05-10T20:18:27.550Z,2.80
2023-05-10T20:20:55.949Z,2.88
2023-05-10T20:23:23.186Z,2.60
2023-05-10T20:25:50.538Z,2.28
2023-05-10T20:28:25.478Z,2.47
2023-05-10T20:30:54.278Z,2.58
2023-05-10T20:33:22.277Z,4.03
2023-05-10T20:35:50.745Z,2.58
2023-05-10T20:38:18.469Z,2.70
2023-05-10T20:40:45.928Z,4.55
2023-05-10T20:43:13.119Z,2.50
2023-05-10T20:45:40.258Z,2.33
2023-05-10T20:48:08.241Z,2.40
2023-05-10T20:50:35.935Z,2.70
2023-05-10T20:53:03.079Z,3.35
2023-05-10T20:55:30.201Z,2.75
2023-05-10T20:57:57.426Z,5.10
2023-05-10T21:00:24.592Z,2.70
2023-05-10T21:02:51.763Z,3.58
2023-05-10T21:05:19.198Z,3.50
2023-05-10T21:07:46.406Z,3.53
2023-05-10T21:10:13.525Z,3.58
2023-05-10T21:12:40.793Z,2.67
2023-05-10T21:15:08.775Z,2.58
2023-05-10T21:17:36.040Z,2.63
2023-05-10T21:20:03.987Z,3.50
2023-05-10T21:22:31.101Z,3.10
2023-05-10T21:24:58.197Z,2.80
2023-05-10T21:27:25.479Z,3.30
2023-05-10T21:29:52.675Z,3.40
2023-05-10T21:32:19.780Z,5.55
2023-05-10T21:34:46.894Z,3.25
2023-05-10T21:37:15.687Z,2.58
2023-05-10T21:39:42.844Z,5.28
2023-05-10T21:42:09.987Z,2.90
2023-05-10T21:44:37.402Z,3.08
2023-05-10T21:47:05.811Z,5.38
2023-05-10T21:49:32.930Z,3.05
2023-05-10T21:52:00.090Z,4.82
2023-05-10T21:54:27.596Z,4.28
2023-05-10T21:56:54.637Z,5.30
2023-05-10T21:59:22.057Z,3.03
2023-05-10T22:01:49.144Z,2.88
2023-05-10T22:04:16.365Z,2.47
2023-05-10T22:06:43.533Z,2.50
2023-05-10T22:09:10.636Z,3.53
2023-05-10T22:11:37.736Z,2.70
2023-05-10T22:14:04.918Z,4.82
2023-05-10T22:16:32.052Z,2.92
2023-05-10T22:18:59.263Z,5.03
2023-05-10T22:21:26.386Z,5.38
2023-05-10T22:23:53.542Z,3.65
2023-05-10T22:26:20.613Z,9.80
2023-05-10T22:28:48.387Z,6.35
2023-05-10T22:31:15.581Z,3.65
2023-05-10T22:33:42.829Z,7.75
2023-05-10T22:36:09.919Z,12.00
2023-05-10T22:38:37.858Z,6.18
2023-05-10T22:41:05.052Z,5.82
2023-05-10T22:43:32.220Z,6.57
2023-05-10T22:45:59.453Z,5.10
2023-05-10T22:48:26.856Z,5.80
2023-05-10T22:50:54.034Z,10.40
2023-05-10T22:53:21.334Z,7.50
2023-05-10T22:55:48.620Z,7.65
2023-05-10T22:58:15.773Z,11.15
2023-05-10T23:00:42.914Z,8.10
2023-05-10T23:03:10.061Z,7.07
2023-05-10T23:05:37.218Z,8.80
2023-05-10T23:08:04.363Z,12.02
2023-05-10T23:10:31.895Z,10.55
2023-05-10T23:12:59.368Z,12.27
2023-05-10T23:15:26.956Z,14.90
2023-05-10T23:17:54.983Z,10.88
2023-05-10T23:20:22.649Z,13.60
2023-05-10T23:22:50.121Z,9.18
2023-05-10T23:25:17.586Z,9.60
2023-05-10T23:27:45.186Z,7.35
2023-05-10T23:30:12.973Z,7.75
2023-05-10T23:32:40.999Z,7.72
2023-05-10T23:35:09.359Z,8.02
2023-05-10T23:37:37.383Z,6.97
2023-05-10T23:40:05.375Z,7.68
2023-05-10T23:42:33.422Z,9.38
2023-05-10T23:45:01.131Z,6.57
2023-05-10T23:47:28.681Z,8.68
2023-05-10T23:49:56.336Z,7.55
2023-05-10T23:52:25.711Z,11.82
2023-05-10T23:54:54.126Z,11.32
2023-05-10T23:57:22.047Z,9.07
2023-05-10T23:59:49.616Z,8.07
